createdAt,value
2023-02-11T00:00:58.351Z,33.18
2023-02-11T00:03:26.286Z,31.69
2023-02-11T00:06:01.716Z,33.38
2023-02-11T00:08:29.437Z,31.81
2023-02-11T00:10:57.347Z,32.03
2023-02-11T00:13:25.064Z,33.23
2023-02-11T00:15:52.834Z,33.67
2023-02-11T00:18:20.514Z,32.16
2023-02-11T00:20:48.235Z,31.98
2023-02-11T00:23:17.406Z,33.06
2023-02-11T00:25:45.660Z,30.81
2023-02-11T00:28:13.432Z,31.86
2023-02-11T00:30:41.199Z,31.17
2023-02-11T00:33:08.979Z,31.18
2023-02-11T00:35:37.835Z,31.66
2023-02-11T00:38:05.542Z,30.30
2023-02-11T00:40:34.651Z,31.73
2023-02-11T00:43:02.305Z,31.62
2023-02-11T00:45:30.704Z,31.12
2023-02-11T00:47:58.393Z,29.73
2023-02-11T00:50:26.363Z,30.93
2023-02-11T00:52:53.978Z,30.41
2023-02-11T00:55:21.615Z,30.21
2023-02-11T00:57:50.705Z,30.09
2023-02-11T01:00:18.529Z,30.26
2023-02-11T01:02:46.288Z,29.98
2023-02-11T01:05:14.021Z,30.13
2023-02-11T01:07:41.730Z,28.96
2023-02-11T01:10:09.527Z,30.02
2023-02-11T01:12:37.189Z,30.52
2023-02-11T01:15:06.616Z,29.78
2023-02-11T01:17:34.472Z,29.56
2023-02-11T01:20:03.178Z,29.53
2023-02-11T01:22:30.853Z,29.47
2023-02-11T01:24:58.473Z,30.48
2023-02-11T01:27:26.169Z,29.63
2023-02-11T01:29:53.872Z,29.63
2023-02-11T01:32:22.967Z,28.87
2023-02-11T01:34:50.602Z,29.64
2023-02-11T01:37:18.339Z,28.83
2023-02-11T01:39:46.119Z,28.50
2023-02-11T01:42:15.058Z,28.15
2023-02-11T01:44:42.765Z,28.73
2023-02-11T01:47:10.525Z,28.57
2023-02-11T01:49:39.813Z,28.31
2023-02-11T01:52:08.457Z,28.46
2023-02-11T01:54:53.827Z,28.35
2023-02-11T01:57:25.890Z,28.54
2023-02-11T01:59:55.797Z,28.10
2023-02-11T02:02:25.222Z,28.65
2023-02-11T02:04:54.603Z,28.10
2023-02-11T02:07:32.389Z,28.71
2023-02-11T02:10:00.578Z,28.16
2023-02-11T02:12:28.329Z,27.80
2023-02-11T02:15:12.027Z,28.11
2023-02-11T02:17:40.258Z,28.75
2023-02-11T02:20:16.304Z,28.19
2023-02-11T02:22:58.808Z,27.68
2023-02-11T02:25:29.924Z,27.54
2023-02-11T02:27:57.955Z,27.34
2023-02-11T02:30:31.105Z,27.93
2023-02-11T02:33:07.986Z,27.32
2023-02-11T02:35:41.658Z,27.29
2023-02-11T02:38:09.685Z,27.26
2023-02-11T02:40:37.931Z,27.47
2023-02-11T02:43:05.646Z,27.16
2023-02-11T02:45:33.855Z,27.15
2023-02-11T02:48:02.921Z,27.12
2023-02-11T02:50:31.764Z,27.12
2023-02-11T02:53:02.879Z,26.99
2023-02-11T02:55:34.161Z,27.25
2023-02-11T02:58:06.585Z,26.84
2023-02-11T03:00:35.643Z,26.87
2023-02-11T03:03:11.812Z,27.11
2023-02-11T03:05:41.660Z,26.80
2023-02-11T03:08:09.639Z,26.76
2023-02-11T03:10:37.753Z,26.70
2023-02-11T03:13:05.430Z,26.73
2023-02-11T03:15:33.924Z,26.64
2023-02-11T03:18:01.668Z,26.64
2023-02-11T03:20:30.841Z,26.64
2023-02-11T03:22:59.223Z,26.38
2023-02-11T03:25:28.132Z,26.59
2023-02-11T03:27:58.316Z,26.43
2023-02-11T03:30:27.078Z,26.31
2023-02-11T03:32:54.961Z,26.66
2023-02-11T03:35:22.996Z,26.47
2023-02-11T03:37:52.383Z,26.28
2023-02-11T03:40:20.474Z,26.51
2023-02-11T03:42:49.669Z,26.24
2023-02-11T03:45:18.012Z,26.20
2023-02-11T03:47:47.110Z,26.47
2023-02-11T03:50:14.816Z,26.00
2023-02-11T03:52:42.611Z,26.05
2023-02-11T03:55:12.778Z,25.92
2023-02-11T03:57:40.437Z,25.94
2023-02-11T04:00:08.566Z,26.19
2023-02-11T04:02:36.522Z,26.02
2023-02-11T04:05:04.300Z,26.23
2023-02-11T04:07:31.965Z,25.98
2023-02-11T04:09:59.574Z,26.08
2023-02-11T04:12:28.637Z,26.34
2023-02-11T04:14:56.376Z,25.98
2023-02-11T04:17:24.040Z,25.83
2023-02-11T04:19:51.793Z,26.01
2023-02-11T04:22:19.464Z,25.90
2023-02-11T04:24:47.165Z,26.03
2023-02-11T04:27:14.984Z,25.90
2023-02-11T04:29:44.060Z,26.25
2023-02-11T04:32:11.957Z,25.96
2023-02-11T04:34:39.800Z,26.02
2023-02-11T04:37:07.544Z,25.85
2023-02-11T04:39:35.220Z,26.00
2023-02-11T04:42:02.836Z,25.58
2023-02-11T04:44:30.553Z,25.55
2023-02-11T04:46:59.650Z,25.61
2023-02-11T04:49:27.371Z,25.52
2023-02-11T04:51:55.050Z,25.43
2023-02-11T04:54:23.124Z,25.43
2023-02-11T04:56:51.144Z,25.60
2023-02-11T04:59:18.805Z,25.54
2023-02-11T05:01:46.512Z,25.64
2023-02-11T05:04:15.721Z,25.52
2023-02-11T05:06:43.521Z,25.63
2023-02-11T05:09:11.598Z,25.40
2023-02-11T05:11:40.170Z,25.30
2023-02-11T05:14:07.819Z,25.46
2023-02-11T05:16:35.700Z,25.51
2023-02-11T05:19:03.458Z,25.63
2023-02-11T05:21:32.529Z,25.56
2023-02-11T05:24:01.561Z,25.51
2023-02-11T05:26:30.638Z,25.41
2023-02-11T05:28:58.386Z,25.53
2023-02-11T05:31:27.239Z,25.60
2023-02-11T05:33:54.923Z,25.70
2023-02-11T05:36:23.924Z,25.65
2023-02-11T05:38:54.302Z,25.56
2023-02-11T05:41:23.223Z,25.43
2023-02-11T05:43:52.409Z,25.49
2023-02-11T05:46:21.292Z,25.37
2023-02-11T05:48:49.156Z,25.26
2023-02-11T05:51:18.362Z,25.39
2023-02-11T05:53:46.091Z,25.32
2023-02-11T05:56:16.189Z,25.18
2023-02-11T05:58:45.060Z,25.05
2023-02-11T06:01:14.011Z,25.26
2023-02-11T06:03:41.875Z,25.04
2023-02-11T06:06:11.525Z,25.14
2023-02-11T06:08:40.573Z,24.93
2023-02-11T06:11:08.194Z,25.07
2023-02-11T06:13:37.238Z,24.78
2023-02-11T06:16:05.161Z,25.15
2023-02-11T06:18:34.109Z,24.81
2023-02-11T06:21:05.480Z,25.19
2023-02-11T06:23:34.516Z,24.78
2023-02-11T06:26:03.582Z,24.58
2023-02-11T06:28:32.522Z,24.90
2023-02-11T06:31:07.652Z,24.92
2023-02-11T06:33:36.823Z,24.77
2023-02-11T06:36:06.528Z,24.83
2023-02-11T06:38:35.294Z,25.01
2023-02-11T06:41:02.969Z,24.57
2023-02-11T06:43:30.709Z,24.80
2023-02-11T06:45:58.321Z,24.52
2023-02-11T06:48:27.432Z,24.32
2023-02-11T06:50:55.153Z,24.30
2023-02-11T06:53:26.233Z,24.41
2023-02-11T06:55:54.962Z,24.89
2023-02-11T06:58:22.979Z,24.91
2023-02-11T07:00:52.382Z,25.07
2023-02-11T07:03:21.341Z,25.06
2023-02-11T07:05:51.740Z,25.10
2023-02-11T07:08:22.289Z,25.05
2023-02-11T07:10:51.084Z,24.81
2023-02-11T07:13:20.184Z,25.14
2023-02-11T07:15:49.472Z,25.11
2023-02-11T07:18:20.664Z,25.26
2023-02-11T07:20:49.430Z,25.06
2023-02-11T07:23:19.588Z,25.17
2023-02-11T07:25:47.313Z,24.90
2023-02-11T07:28:15.556Z,24.92
2023-02-11T07:30:43.307Z,25.14
2023-02-11T07:33:10.905Z,25.41
2023-02-11T07:35:40.439Z,25.19
2023-02-11T07:38:09.341Z,25.22
2023-02-11T07:40:39.187Z,25.10
2023-02-11T07:43:06.818Z,25.27
2023-02-11T07:45:35.114Z,25.04
2023-02-11T07:48:03.383Z,25.13
2023-02-11T07:50:31.577Z,25.26
2023-02-11T07:52:59.280Z,25.26
2023-02-11T07:55:27.343Z,25.30
2023-02-11T07:57:56.405Z,25.20
2023-02-11T08:00:24.846Z,25.54
2023-02-11T08:02:52.453Z,25.38
2023-02-11T08:05:20.838Z,25.31
2023-02-11T08:07:49.393Z,25.47
2023-02-11T08:10:17.161Z,25.15
2023-02-11T08:12:45.912Z,25.16
2023-02-11T08:15:15.012Z,25.33
2023-02-11T08:17:43.315Z,25.40
2023-02-11T08:20:12.020Z,25.06
2023-02-11T08:22:40.338Z,25.32
2023-02-11T08:25:08.141Z,25.11
2023-02-11T08:27:35.747Z,25.24
2023-02-11T08:30:04.146Z,25.34
2023-02-11T08:32:33.180Z,25.29
2023-02-11T08:35:03.529Z,25.46
2023-02-11T08:37:33.046Z,25.52
2023-02-11T08:40:01.598Z,25.41
2023-02-11T08:42:29.225Z,25.35
2023-02-11T08:44:56.884Z,25.48
2023-02-11T08:47:25.234Z,25.51
2023-02-11T08:49:55.024Z,25.36
2023-02-11T08:52:23.346Z,29.90
2023-02-11T08:54:50.961Z,27.45
2023-02-11T08:57:19.369Z,27.87
2023-02-11T08:59:46.985Z,28.78
2023-02-11T09:02:16.019Z,29.31
2023-02-11T09:04:43.807Z,29.72
2023-02-11T09:07:14.449Z,30.33
2023-02-11T09:09:42.154Z,30.63
2023-02-11T09:12:11.493Z,30.75
2023-02-11T09:14:39.473Z,31.22
2023-02-11T09:17:08.584Z,31.25
2023-02-11T09:19:36.147Z,31.82
2023-02-11T09:22:04.518Z,31.32
2023-02-11T09:24:33.575Z,31.63
2023-02-11T09:27:02.575Z,31.83
2023-02-11T09:29:30.354Z,33.08
2023-02-11T09:31:58.129Z,32.83
2023-02-11T09:34:26.532Z,32.72
2023-02-11T09:36:54.248Z,32.72
2023-02-11T09:39:24.231Z,32.46
2023-02-11T09:42:03.960Z,32.18
2023-02-11T09:44:34.573Z,32.04
2023-02-11T09:47:05.186Z,31.88
2023-02-11T09:49:35.458Z,32.10
2023-02-11T09:52:04.605Z,31.87
2023-02-11T09:54:33.089Z,31.97
2023-02-11T09:57:02.913Z,31.95
2023-02-11T09:59:30.618Z,32.23
2023-02-11T10:01:59.688Z,32.05
2023-02-11T10:04:32.579Z,31.83
2023-02-11T10:07:02.549Z,31.86
2023-02-11T10:09:35.547Z,32.03
2023-02-11T10:12:11.314Z,31.90
2023-02-11T10:14:49.025Z,31.50
2023-02-11T10:17:19.725Z,31.75
2023-02-11T10:19:51.232Z,31.54
2023-02-11T10:22:20.456Z,31.77
2023-02-11T10:24:51.072Z,31.70
2023-02-11T10:27:21.541Z,31.96
2023-02-11T10:29:50.421Z,31.95
2023-02-11T10:32:23.129Z,31.92
2023-02-11T10:34:50.826Z,31.92
2023-02-11T10:37:18.476Z,31.98
2023-02-11T10:39:46.937Z,31.91
2023-02-11T10:42:14.776Z,32.05
2023-02-11T10:44:46.675Z,31.95
2023-02-11T10:47:16.938Z,31.77
2023-02-11T10:49:45.028Z,31.46
2023-02-11T10:52:17.323Z,31.81
2023-02-11T10:54:56.104Z,31.78
2023-02-11T10:57:24.483Z,31.13
2023-02-11T10:59:53.673Z,31.24
2023-02-11T11:02:23.501Z,30.95
2023-02-11T11:04:51.209Z,31.01
2023-02-11T11:07:20.112Z,30.88
2023-02-11T11:09:50.016Z,30.63
2023-02-11T11:12:25.237Z,30.70
2023-02-11T11:14:57.659Z,30.39
2023-02-11T11:17:29.070Z,30.50
2023-02-11T11:20:10.544Z,30.30
2023-02-11T11:22:38.931Z,30.42
2023-02-11T11:25:06.907Z,30.28
2023-02-11T11:27:35.295Z,30.35
2023-02-11T11:30:04.338Z,30.10
2023-02-11T11:32:33.647Z,30.00
2023-02-11T11:35:02.763Z,29.71
2023-02-11T11:37:30.838Z,29.63
2023-02-11T11:40:00.271Z,29.62
2023-02-11T11:42:28.440Z,29.62
2023-02-11T11:45:00.793Z,29.65
2023-02-11T11:47:32.842Z,29.31
2023-02-11T11:50:07.773Z,29.26
2023-02-11T11:52:37.459Z,29.23
2023-02-11T11:55:07.184Z,29.06
2023-02-11T11:57:35.564Z,28.83
2023-02-11T12:00:04.015Z,28.77
2023-02-11T12:02:46.501Z,28.57
2023-02-11T12:05:15.562Z,28.54
2023-02-11T12:07:49.178Z,28.57
2023-02-11T12:10:26.548Z,28.21
2023-02-11T12:12:55.954Z,28.38
2023-02-11T12:15:27.350Z,28.42
2023-02-11T12:18:08.072Z,28.12
2023-02-11T12:20:38.749Z,28.25
2023-02-11T12:23:11.919Z,28.36
2023-02-11T12:25:41.570Z,28.07
2023-02-11T12:28:12.277Z,28.01
2023-02-11T12:30:51.982Z,27.67
2023-02-11T12:33:24.125Z,27.93
2023-02-11T12:35:55.593Z,27.46
2023-02-11T12:38:27.378Z,27.59
2023-02-11T12:40:58.520Z,27.74
2023-02-11T12:43:25.554Z,27.65
2023-02-11T12:46:04.209Z,27.56
2023-02-11T12:48:37.965Z,27.18
2023-02-11T12:51:09.651Z,27.36
2023-02-11T12:53:41.865Z,27.39
2023-02-11T12:56:12.431Z,27.35
2023-02-11T12:58:45.425Z,26.86
2023-02-11T13:01:17.281Z,26.88
2023-02-11T13:03:46.616Z,27.18
2023-02-11T13:06:14.820Z,27.16
2023-02-11T13:08:44.433Z,27.19
2023-02-11T13:11:15.130Z,26.66
2023-02-11T13:13:48.253Z,26.80
2023-02-11T13:16:18.599Z,26.81
2023-02-11T13:18:50.165Z,26.80
2023-02-11T13:21:23.313Z,26.80
2023-02-11T13:23:53.477Z,26.92
2023-02-11T13:26:22.550Z,26.76
2023-02-11T13:28:50.771Z,26.60
2023-02-11T13:31:21.255Z,26.69
2023-02-11T13:33:50.721Z,26.68
2023-02-11T13:36:19.966Z,26.35
2023-02-11T13:39:02.025Z,26.70
2023-02-11T13:41:37.796Z,26.34
2023-02-11T13:44:22.388Z,26.20
2023-02-11T13:46:54.822Z,26.06
2023-02-11T13:49:24.416Z,26.26
2023-02-11T13:51:52.776Z,26.28
2023-02-11T13:54:22.278Z,26.20
2023-02-11T13:56:56.797Z,26.04
2023-02-11T13:59:42.351Z,26.15
2023-02-11T14:02:39.708Z,26.16
2023-02-11T14:05:42.828Z,25.84
2023-02-11T14:08:32.990Z,25.79
2023-02-11T14:11:00.798Z,25.85
2023-02-11T14:13:33.803Z,25.78
2023-02-11T14:16:04.792Z,25.96
2023-02-11T14:18:52.720Z,25.83
2023-02-11T14:21:23.162Z,25.72
2023-02-11T14:23:54.737Z,25.73
2023-02-11T14:26:33.988Z,25.66
2023-02-11T14:29:03.105Z,25.72
2023-02-11T14:31:31.709Z,25.65
2023-02-11T14:34:08.831Z,25.44
2023-02-11T14:36:46.308Z,25.85
2023-02-11T14:39:17.086Z,25.38
2023-02-11T14:41:45.529Z,25.46
2023-02-11T14:44:16.852Z,25.54
2023-02-11T14:46:47.932Z,25.43
2023-02-11T14:49:18.813Z,25.86
2023-02-11T14:51:47.835Z,25.66
2023-02-11T14:54:16.952Z,25.55
2023-02-11T14:56:45.969Z,25.50
2023-02-11T14:59:17.517Z,25.50
2023-02-11T15:01:47.648Z,25.65
2023-02-11T15:04:23.673Z,25.39
2023-02-11T15:06:53.549Z,25.62
2023-02-11T15:09:24.191Z,25.58
2023-02-11T15:11:52.607Z,25.41
2023-02-11T15:14:20.641Z,25.23
2023-02-11T15:16:49.089Z,25.32
2023-02-11T15:19:21.314Z,25.16
2023-02-11T15:21:49.732Z,25.29
2023-02-11T15:24:25.641Z,25.27
2023-02-11T15:27:03.322Z,25.32
2023-02-11T15:29:35.807Z,25.17
2023-02-11T15:32:08.087Z,25.19
2023-02-11T15:34:35.966Z,25.11
2023-02-11T15:37:03.763Z,25.33
2023-02-11T15:39:35.050Z,25.04
2023-02-11T15:42:18.734Z,24.93
2023-02-11T15:44:50.522Z,24.87
2023-02-11T15:47:24.405Z,25.03
2023-02-11T15:49:52.760Z,24.91
2023-02-11T15:52:23.504Z,25.15
2023-02-11T15:54:53.493Z,24.96
2023-02-11T15:57:21.207Z,24.78
2023-02-11T15:59:50.008Z,25.16
2023-02-11T16:02:18.069Z,24.89
2023-02-11T16:04:50.991Z,24.80
2023-02-11T16:07:33.572Z,24.86
2023-02-11T16:10:03.514Z,24.89
2023-02-11T16:12:31.194Z,25.03
2023-02-11T16:15:03.914Z,24.88
2023-02-11T16:17:31.586Z,24.93
2023-02-11T16:19:59.199Z,24.85
2023-02-11T16:22:28.867Z,24.85
2023-02-11T16:24:56.793Z,24.68
2023-02-11T16:27:29.394Z,24.92
2023-02-11T16:29:57.208Z,24.78
2023-02-11T16:32:26.253Z,24.79
2023-02-11T16:34:54.078Z,24.65
2023-02-11T16:37:22.561Z,24.73
2023-02-11T16:39:50.216Z,24.53
2023-02-11T16:42:18.951Z,24.91
2023-02-11T16:44:48.063Z,24.73
2023-02-11T16:47:18.155Z,24.46
2023-02-11T16:49:45.802Z,24.79
2023-02-11T16:52:15.847Z,24.38
2023-02-11T16:54:43.492Z,24.75
2023-02-11T16:57:12.774Z,24.62
2023-02-11T16:59:40.432Z,24.61
2023-02-11T17:02:11.917Z,24.56
2023-02-11T17:04:39.638Z,24.44
2023-02-11T17:07:08.453Z,24.85
2023-02-11T17:09:36.192Z,24.34
2023-02-11T17:12:04.621Z,24.45
2023-02-11T17:14:32.324Z,24.41
2023-02-11T17:17:00.137Z,24.27
2023-02-11T17:19:30.365Z,24.51
2023-02-11T17:21:57.985Z,24.41
2023-02-11T17:24:26.385Z,24.54
2023-02-11T17:26:54.854Z,24.41
2023-02-11T17:29:25.064Z,24.45
2023-02-11T17:31:52.927Z,24.59
2023-02-11T17:34:24.991Z,24.39
2023-02-11T17:36:53.982Z,24.41
2023-02-11T17:39:22.888Z,24.64
2023-02-11T17:41:50.577Z,24.41
2023-02-11T17:44:19.057Z,24.52
2023-02-11T17:46:49.214Z,24.27
2023-02-11T17:49:17.743Z,24.38
2023-02-11T17:51:45.430Z,24.28
2023-02-11T17:54:15.111Z,24.35
2023-02-11T17:56:44.047Z,24.37
2023-02-11T17:59:11.829Z,24.36
2023-02-11T18:01:40.421Z,24.19
2023-02-11T18:04:08.274Z,24.25
2023-02-11T18:06:35.917Z,24.34
2023-02-11T18:09:06.037Z,24.15
2023-02-11T18:11:35.172Z,24.20
2023-02-11T18:14:03.882Z,24.28
2023-02-11T18:16:31.713Z,24.26
2023-02-11T18:18:59.474Z,24.23
2023-02-11T18:21:28.065Z,24.25
2023-02-11T18:23:56.982Z,24.11
2023-02-11T18:26:25.835Z,24.08
2023-02-11T18:28:55.686Z,24.33
2023-02-11T18:31:23.588Z,24.17
2023-02-11T18:33:54.070Z,24.27
2023-02-11T18:36:21.783Z,24.07
2023-02-11T18:38:51.043Z,24.25
2023-02-11T18:41:18.693Z,24.26
2023-02-11T18:43:46.627Z,24.23
2023-02-11T18:46:35.237Z,24.11
2023-02-11T18:49:04.510Z,24.21
2023-02-11T18:51:32.589Z,24.31
2023-02-11T18:54:02.072Z,24.27
2023-02-11T18:56:29.707Z,24.18
2023-02-11T18:58:58.187Z,23.99
2023-02-11T19:01:27.942Z,23.85
2023-02-11T19:03:55.737Z,24.13
2023-02-11T19:06:25.710Z,24.00
2023-02-11T19:08:53.425Z,24.13
2023-02-11T19:11:41.916Z,24.15
2023-02-11T19:14:10.444Z,23.94
2023-02-11T19:16:39.557Z,23.94
2023-02-11T19:19:08.186Z,23.88
2023-02-11T19:21:35.874Z,23.90
2023-02-11T19:24:08.255Z,23.91
2023-02-11T19:26:36.198Z,23.85
2023-02-11T19:29:03.837Z,23.99
2023-02-11T19:31:34.232Z,23.59
2023-02-11T19:34:03.464Z,23.70
2023-02-11T19:36:31.124Z,23.62
2023-02-11T19:39:04.187Z,23.77
2023-02-11T19:41:31.928Z,23.83
2023-02-11T19:43:59.615Z,23.79
2023-02-11T19:46:29.089Z,23.78
2023-02-11T19:48:57.560Z,23.58
2023-02-11T19:51:27.311Z,23.57
2023-02-11T19:53:55.032Z,23.84
2023-02-11T19:56:23.432Z,23.77
2023-02-11T19:58:52.071Z,23.71
2023-02-11T20:01:20.186Z,23.67
2023-02-11T20:03:49.924Z,23.62
2023-02-11T20:06:22.266Z,23.44
2023-02-11T20:08:51.277Z,23.60
2023-02-11T20:11:20.593Z,23.55
2023-02-11T20:13:49.256Z,23.52
2023-02-11T20:16:18.598Z,23.65
2023-02-11T20:18:46.510Z,23.33
2023-02-11T20:21:14.663Z,23.38
2023-02-11T20:23:49.448Z,23.52
2023-02-11T20:26:18.772Z,23.44
2023-02-11T20:28:47.430Z,23.51
2023-02-11T20:31:16.274Z,23.31
2023-02-11T20:33:44.146Z,23.40
2023-02-11T20:36:12.998Z,23.57
2023-02-11T20:38:40.710Z,23.20
2023-02-11T20:41:10.624Z,23.39
2023-02-11T20:43:39.654Z,23.54
2023-02-11T20:46:07.429Z,23.48
2023-02-11T20:48:39.203Z,23.12
2023-02-11T20:51:07.386Z,23.53
2023-02-11T20:53:35.353Z,23.22
2023-02-11T20:56:08.157Z,23.45
2023-02-11T20:58:35.927Z,23.41
2023-02-11T21:01:10.218Z,23.24
2023-02-11T21:03:37.889Z,23.26
2023-02-11T21:06:07.242Z,23.36
2023-02-11T21:08:34.932Z,23.40
2023-02-11T21:11:02.895Z,23.12
2023-02-11T21:13:31.591Z,23.07
2023-02-11T21:15:59.260Z,23.06
2023-02-11T21:18:29.117Z,22.99
2023-02-11T21:20:56.870Z,23.18
2023-02-11T21:23:26.235Z,23.01
2023-02-11T21:25:54.400Z,23.06
2023-02-11T21:28:26.973Z,23.07
2023-02-11T21:30:54.768Z,23.01
2023-02-11T21:33:22.489Z,22.87
2023-02-11T21:35:53.513Z,23.16
2023-02-11T21:38:21.316Z,23.14
2023-02-11T21:40:49.851Z,22.89
2023-02-11T21:43:17.613Z,22.96
2023-02-11T21:45:46.241Z,23.08
2023-02-11T21:48:17.844Z,22.84
2023-02-11T21:50:46.599Z,22.98
2023-02-11T21:53:15.686Z,23.03
2023-02-11T21:55:43.278Z,22.87
2023-02-11T21:58:13.206Z,23.10
2023-02-11T22:00:40.996Z,22.74
2023-02-11T22:03:08.744Z,23.18
2023-02-11T22:05:37.313Z,22.99
2023-02-11T22:08:05.018Z,23.31
2023-02-11T22:10:34.125Z,22.91
2023-02-11T22:13:02.765Z,23.20
2023-02-11T22:15:30.374Z,23.17
2023-02-11T22:17:58.052Z,23.14
2023-02-11T22:20:26.513Z,22.91
2023-02-11T22:22:54.200Z,22.93
2023-02-11T22:25:22.542Z,22.99
2023-02-11T22:27:51.557Z,23.09
2023-02-11T22:30:19.310Z,23.02
2023-02-11T22:32:48.188Z,22.99
2023-02-11T22:35:15.952Z,23.13
2023-02-11T22:37:43.627Z,23.03
2023-02-11T22:40:12.471Z,23.13
2023-02-11T22:42:40.220Z,23.23
2023-02-11T22:45:10.789Z,22.90
2023-02-11T22:47:40.498Z,23.13
2023-02-11T22:50:08.432Z,23.26
2023-02-11T22:52:36.900Z,23.17
2023-02-11T22:55:04.771Z,23.14
2023-02-11T22:57:32.406Z,23.04
2023-02-11T23:00:01.099Z,23.22
2023-02-11T23:02:30.282Z,23.18
2023-02-11T23:05:00.489Z,23.16
2023-02-11T23:07:28.090Z,23.08
2023-02-11T23:09:55.803Z,23.19
2023-02-11T23:12:24.207Z,23.04
2023-02-11T23:14:51.977Z,22.98
2023-02-11T23:17:19.777Z,23.01
2023-02-11T23:19:49.357Z,23.21
2023-02-11T23:22:17.037Z,23.15
2023-02-11T23:24:44.772Z,23.28
2023-02-11T23:27:12.549Z,22.95
2023-02-11T23:29:40.207Z,23.06
2023-02-11T23:32:07.922Z,23.26
2023-02-11T23:34:35.699Z,23.20
2023-02-11T23:37:04.765Z,23.10
2023-02-11T23:39:32.519Z,23.07
2023-02-11T23:42:00.208Z,23.06
2023-02-11T23:44:27.980Z,23.11
2023-02-11T23:46:55.677Z,23.15
2023-02-11T23:49:23.421Z,23.14
2023-02-11T23:51:51.044Z,23.23
2023-02-11T23:54:20.009Z,22.90
2023-02-11T23:56:47.711Z,22.98
2023-02-11T23:59:15.476Z,22.97
